Terminal Aerodrome Forecast
Issued by NWS

Home | Current Version | Previous Version | Text Only | Print | Product List | Glossary On
Versions: 1 2 3 4 5 6 7 8 9 10 11 12 13 14 15
000
FTUS41 KBTV 190200 AAA
TAFMPV
TAF AMD
KMPV 190205Z 1902/1924 00000KT P6SM BKN045
      TEMPO 1902/1904 SCT045
     FM190400 00000KT P6SM SKC
     FM190700 00000KT 1/4SM FZFG VV001
     FM191400 VRB03KT P6SM SKC
     FM191700 17008KT P6SM SKC=

USA.gov is the U.S. government's official web portal to all federal, state and local government web resources and services.